Aviation Digital Data Service (ADDS)

Output produced by METARs form (1234 UTC 08 May 2021)
found at http://aviationweather.gov/metar/data/
 
KHOU 081120Z 0812/0912 16006KT P6SM FEW020 SCT250 
     FM081500 16013G23KT P6SM SCT030 
     FM081800 17014G24KT P6SM SCT045 
     FM090100 16014KT P6SM SCT025 
     FM090700 17011KT P6SM BKN025